sensor_id;sensor_type;location;lat;lon;timestamp;P1;durP1;ratioP1;P2;durP2;ratioP2
39540;SDS011;25219;52.244;21.006;2024-02-14T00:01:40;11.93;;;4.60;;
39540;SDS011;25219;52.244;21.006;2024-02-14T00:04:05;14.90;;;5.35;;
39540;SDS011;25219;52.244;21.006;2024-02-14T00:06:34;13.63;;;4.90;;
39540;SDS011;25219;52.244;21.006;2024-02-14T00:09:00;12.40;;;4.88;;
39540;SDS011;25219;52.244;21.006;2024-02-14T00:11:25;13.45;;;4.93;;
39540;SDS011;25219;52.244;21.006;2024-02-14T00:13:50;12.10;;;4.80;;
39540;SDS011;25219;52.244;21.006;2024-02-14T00:16:15;14.90;;;5.30;;
39540;SDS011;25219;52.244;21.006;2024-02-14T00:18:40;13.88;;;5.05;;
39540;SDS011;25219;52.244;21.006;2024-02-14T00:21:06;11.63;;;5.50;;
39540;SDS011;25219;52.244;21.006;2024-02-14T00:23:31;14.37;;;4.80;;
39540;SDS011;25219;52.244;21.006;2024-02-14T00:25:56;12.77;;;5.53;;
39540;SDS011;25219;52.244;21.006;2024-02-14T00:28:21;14.18;;;5.45;;
39540;SDS011;25219;52.244;21.006;2024-02-14T00:30:48;15.73;;;5.43;;
39540;SDS011;25219;52.244;21.006;2024-02-14T00:33:14;15.07;;;4.97;;
39540;SDS011;25219;52.244;21.006;2024-02-14T00:35:39;11.40;;;5.37;;
39540;SDS011;25219;52.244;21.006;2024-02-14T00:38:04;14.50;;;4.80;;
39540;SDS011;25219;52.244;21.006;2024-02-14T00:40:29;13.73;;;5.50;;
39540;SDS011;25219;52.244;21.006;2024-02-14T00:42:54;14.55;;;4.95;;
39540;SDS011;25219;52.244;21.006;2024-02-14T00:45:19;12.57;;;5.10;;
39540;SDS011;25219;52.244;21.006;2024-02-14T00:47:45;13.53;;;5.20;;
39540;SDS011;25219;52.244;21.006;2024-02-14T00:50:10;9.63;;;4.57;;
39540;SDS011;25219;52.244;21.006;2024-02-14T00:52:35;17.27;;;5.95;;
39540;SDS011;25219;52.244;21.006;2024-02-14T00:55:00;10.93;;;5.43;;
39540;SDS011;25219;52.244;21.006;2024-02-14T00:57:28;11.70;;;5.10;;
39540;SDS011;25219;52.244;21.006;2024-02-14T00:59:53;12.73;;;5.10;;
39540;SDS011;25219;52.244;21.006;2024-02-14T01:02:21;12.45;;;5.75;;
39540;SDS011;25219;52.244;21.006;2024-02-14T01:04:46;17.27;;;5.37;;
39540;SDS011;25219;52.244;21.006;2024-02-14T01:07:11;11.00;;;5.05;;
39540;SDS011;25219;52.244;21.006;2024-02-14T01:09:37;12.27;;;5.18;;
39540;SDS011;25219;52.244;21.006;2024-02-14T01:12:02;12.88;;;5.18;;
39540;SDS011;25219;52.244;21.006;2024-02-14T01:14:27;13.88;;;5.82;;
39540;SDS011;25219;52.244;21.006;2024-02-14T01:16:52;17.53;;;5.50;;
39540;SDS011;25219;52.244;21.006;2024-02-14T01:19:19;14.85;;;6.05;;
39540;SDS011;25219;52.244;21.006;2024-02-14T01:21:44;16.02;;;6.35;;
39540;SDS011;25219;52.244;21.006;2024-02-14T01:24:13;13.68;;;6.15;;
39540;SDS011;25219;52.244;21.006;2024-02-14T01:26:38;15.02;;;4.97;;
39540;SDS011;25219;52.244;21.006;2024-02-14T01:29:03;18.90;;;6.72;;
39540;SDS011;25219;52.244;21.006;2024-02-14T01:31:30;15.40;;;5.10;;
39540;SDS011;25219;52.244;21.006;2024-02-14T01:33:56;13.27;;;5.03;;
39540;SDS011;25219;52.244;21.006;2024-02-14T01:36:22;15.73;;;5.70;;
39540;SDS011;25219;52.244;21.006;2024-02-14T01:38:47;16.42;;;5.53;;
39540;SDS011;25219;52.244;21.006;2024-02-14T01:41:12;12.77;;;6.23;;
39540;SDS011;25219;52.244;21.006;2024-02-14T01:43:38;11.45;;;5.28;;
39540;SDS011;25219;52.244;21.006;2024-02-14T01:46:07;16.73;;;5.88;;
39540;SDS011;25219;52.244;21.006;2024-02-14T01:48:33;20.73;;;6.53;;
39540;SDS011;25219;52.244;21.006;2024-02-14T01:50:58;12.57;;;5.78;;
39540;SDS011;25219;52.244;21.006;2024-02-14T01:53:24;13.77;;;5.88;;
39540;SDS011;25219;52.244;21.006;2024-02-14T01:55:50;12.63;;;6.55;;
39540;SDS011;25219;52.244;21.006;2024-02-14T01:58:15;12.07;;;5.80;;
39540;SDS011;25219;52.244;21.006;2024-02-14T02:00:40;12.27;;;5.67;;
39540;SDS011;25219;52.244;21.006;2024-02-14T02:03:06;14.98;;;6.85;;
39540;SDS011;25219;52.244;21.006;2024-02-14T02:05:31;18.40;;;6.37;;
39540;SDS011;25219;52.244;21.006;2024-02-14T02:07:56;14.88;;;6.32;;
39540;SDS011;25219;52.244;21.006;2024-02-14T02:10:21;14.10;;;7.17;;
39540;SDS011;25219;52.244;21.006;2024-02-14T02:12:47;14.25;;;6.35;;
39540;SDS011;25219;52.244;21.006;2024-02-14T02:15:12;18.58;;;7.63;;
39540;SDS011;25219;52.244;21.006;2024-02-14T02:17:39;15.70;;;7.25;;
39540;SDS011;25219;52.244;21.006;2024-02-14T02:20:05;16.65;;;7.15;;
39540;SDS011;25219;52.244;21.006;2024-02-14T02:22:32;16.10;;;6.25;;
39540;SDS011;25219;52.244;21.006;2024-02-14T02:25:00;15.82;;;6.90;;
39540;SDS011;25219;52.244;21.006;2024-02-14T02:27:25;14.43;;;7.00;;
39540;SDS011;25219;52.244;21.006;2024-02-14T02:29:50;15.77;;;7.55;;
39540;SDS011;25219;52.244;21.006;2024-02-14T02:32:15;18.30;;;6.90;;
39540;SDS011;25219;52.244;21.006;2024-02-14T02:34:42;14.98;;;5.88;;
39540;SDS011;25219;52.244;21.006;2024-02-14T02:37:10;17.52;;;6.68;;
39540;SDS011;25219;52.244;21.006;2024-02-14T02:39:35;15.33;;;6.67;;
39540;SDS011;25219;52.244;21.006;2024-02-14T02:42:01;15.68;;;7.38;;
39540;SDS011;25219;52.244;21.006;2024-02-14T02:44:27;17.08;;;7.15;;
39540;SDS011;25219;52.244;21.006;2024-02-14T02:46:52;14.55;;;7.28;;
39540;SDS011;25219;52.244;21.006;2024-02-14T02:49:17;15.60;;;6.63;;
39540;SDS011;25219;52.244;21.006;2024-02-14T02:51:42;16.63;;;7.27;;
39540;SDS011;25219;52.244;21.006;2024-02-14T02:54:07;18.27;;;7.25;;
39540;SDS011;25219;52.244;21.006;2024-02-14T02:56:33;15.77;;;7.10;;
39540;SDS011;25219;52.244;21.006;2024-02-14T02:58:58;14.40;;;6.73;;
39540;SDS011;25219;52.244;21.006;2024-02-14T03:01:24;20.73;;;7.13;;
39540;SDS011;25219;52.244;21.006;2024-02-14T03:03:49;18.55;;;7.03;;
39540;SDS011;25219;52.244;21.006;2024-02-14T03:06:15;13.75;;;6.57;;
39540;SDS011;25219;52.244;21.006;2024-02-14T03:08:40;16.23;;;7.37;;
39540;SDS011;25219;52.244;21.006;2024-02-14T03:11:05;15.03;;;6.77;;
39540;SDS011;25219;52.244;21.006;2024-02-14T03:13:31;14.65;;;6.85;;
39540;SDS011;25219;52.244;21.006;2024-02-14T03:15:56;16.07;;;6.97;;
39540;SDS011;25219;52.244;21.006;2024-02-14T03:18:23;19.75;;;7.18;;
39540;SDS011;25219;52.244;21.006;2024-02-14T03:20:48;19.00;;;7.50;;
39540;SDS011;25219;52.244;21.006;2024-02-14T03:23:14;23.63;;;7.53;;
39540;SDS011;25219;52.244;21.006;2024-02-14T03:25:40;18.17;;;8.32;;
39540;SDS011;25219;52.244;21.006;2024-02-14T03:28:05;23.00;;;7.57;;
39540;SDS011;25219;52.244;21.006;2024-02-14T03:30:36;18.25;;;6.75;;
39540;SDS011;25219;52.244;21.006;2024-02-14T03:33:02;22.02;;;7.75;;
39540;SDS011;25219;52.244;21.006;2024-02-14T03:35:27;16.20;;;7.20;;
39540;SDS011;25219;52.244;21.006;2024-02-14T03:37:53;20.03;;;6.63;;
39540;SDS011;25219;52.244;21.006;2024-02-14T03:40:18;15.80;;;8.35;;
39540;SDS011;25219;52.244;21.006;2024-02-14T03:42:45;17.48;;;8.02;;
39540;SDS011;25219;52.244;21.006;2024-02-14T03:45:10;19.35;;;8.13;;
39540;SDS011;25219;52.244;21.006;2024-02-14T03:47:35;16.23;;;7.87;;
39540;SDS011;25219;52.244;21.006;2024-02-14T03:50:04;20.70;;;8.30;;
39540;SDS011;25219;52.244;21.006;2024-02-14T03:52:30;20.50;;;8.98;;
39540;SDS011;25219;52.244;21.006;2024-02-14T03:54:57;18.80;;;8.57;;
39540;SDS011;25219;52.244;21.006;2024-02-14T03:57:23;21.33;;;9.10;;
39540;SDS011;25219;52.244;21.006;2024-02-14T03:59:50;18.90;;;8.75;;
39540;SDS011;25219;52.244;21.006;2024-02-14T04:02:15;22.33;;;9.02;;
39540;SDS011;25219;52.244;21.006;2024-02-14T04:04:43;27.67;;;10.18;;
39540;SDS011;25219;52.244;21.006;2024-02-14T04:07:08;19.00;;;9.30;;
39540;SDS011;25219;52.244;21.006;2024-02-14T04:09:34;19.60;;;10.10;;
39540;SDS011;25219;52.244;21.006;2024-02-14T04:11:59;21.88;;;9.20;;
39540;SDS011;25219;52.244;21.006;2024-02-14T04:14:24;18.98;;;9.90;;
39540;SDS011;25219;52.244;21.006;2024-02-14T04:16:50;17.83;;;8.35;;
39540;SDS011;25219;52.244;21.006;2024-02-14T04:19:15;19.25;;;8.90;;
39540;SDS011;25219;52.244;21.006;2024-02-14T04:21:42;24.38;;;9.88;;
39540;SDS011;25219;52.244;21.006;2024-02-14T04:24:07;19.30;;;9.23;;
39540;SDS011;25219;52.244;21.006;2024-02-14T04:26:33;21.25;;;9.68;;
39540;SDS011;25219;52.244;21.006;2024-02-14T04:28:58;20.20;;;9.27;;
39540;SDS011;25219;52.244;21.006;2024-02-14T04:31:23;20.08;;;9.27;;
39540;SDS011;25219;52.244;21.006;2024-02-14T04:33:48;31.30;;;9.83;;
39540;SDS011;25219;52.244;21.006;2024-02-14T04:36:17;19.90;;;9.63;;
39540;SDS011;25219;52.244;21.006;2024-02-14T04:38:43;23.92;;;10.00;;
39540;SDS011;25219;52.244;21.006;2024-02-14T04:41:08;23.40;;;9.70;;
39540;SDS011;25219;52.244;21.006;2024-02-14T04:43:35;21.77;;;9.40;;
39540;SDS011;25219;52.244;21.006;2024-02-14T04:46:00;22.73;;;9.70;;
39540;SDS011;25219;52.244;21.006;2024-02-14T04:48:25;23.50;;;9.63;;
39540;SDS011;25219;52.244;21.006;2024-02-14T04:50:51;22.15;;;9.68;;
39540;SDS011;25219;52.244;21.006;2024-02-14T04:53:17;24.23;;;9.85;;
39540;SDS011;25219;52.244;21.006;2024-02-14T04:55:42;21.42;;;10.50;;
39540;SDS011;25219;52.244;21.006;2024-02-14T04:58:07;21.50;;;9.90;;
39540;SDS011;25219;52.244;21.006;2024-02-14T05:00:32;19.10;;;9.60;;
39540;SDS011;25219;52.244;21.006;2024-02-14T05:02:58;22.75;;;9.40;;
39540;SDS011;25219;52.244;21.006;2024-02-14T05:05:23;23.70;;;10.47;;
39540;SDS011;25219;52.244;21.006;2024-02-14T05:07:48;17.52;;;9.82;;
39540;SDS011;25219;52.244;21.006;2024-02-14T05:10:13;25.97;;;10.30;;
39540;SDS011;25219;52.244;21.006;2024-02-14T05:12:39;21.17;;;10.27;;
39540;SDS011;25219;52.244;21.006;2024-02-14T05:15:05;24.77;;;10.07;;
39540;SDS011;25219;52.244;21.006;2024-02-14T05:17:30;23.45;;;9.98;;
39540;SDS011;25219;52.244;21.006;2024-02-14T05:19:55;17.97;;;9.77;;
39540;SDS011;25219;52.244;21.006;2024-02-14T05:22:21;19.02;;;8.82;;
39540;SDS011;25219;52.244;21.006;2024-02-14T05:24:46;24.52;;;9.88;;
39540;SDS011;25219;52.244;21.006;2024-02-14T05:27:12;22.02;;;9.05;;
39540;SDS011;25219;52.244;21.006;2024-02-14T05:29:37;19.90;;;8.18;;
39540;SDS011;25219;52.244;21.006;2024-02-14T05:32:02;23.30;;;9.70;;
39540;SDS011;25219;52.244;21.006;2024-02-14T05:34:27;20.27;;;8.98;;
39540;SDS011;25219;52.244;21.006;2024-02-14T05:36:52;24.77;;;9.63;;
39540;SDS011;25219;52.244;21.006;2024-02-14T05:39:18;18.10;;;9.63;;
39540;SDS011;25219;52.244;21.006;2024-02-14T05:41:44;18.13;;;7.97;;
39540;SDS011;25219;52.244;21.006;2024-02-14T05:44:09;19.85;;;9.20;;
39540;SDS011;25219;52.244;21.006;2024-02-14T05:46:34;19.02;;;8.38;;
39540;SDS011;25219;52.244;21.006;2024-02-14T05:48:59;24.70;;;8.63;;
39540;SDS011;25219;52.244;21.006;2024-02-14T05:51:24;20.63;;;8.60;;
39540;SDS011;25219;52.244;21.006;2024-02-14T05:53:50;23.73;;;9.00;;
39540;SDS011;25219;52.244;21.006;2024-02-14T05:56:15;17.95;;;8.90;;
39540;SDS011;25219;52.244;21.006;2024-02-14T05:58:40;18.48;;;8.25;;
39540;SDS011;25219;52.244;21.006;2024-02-14T06:01:05;22.13;;;8.50;;
39540;SDS011;25219;52.244;21.006;2024-02-14T06:03:31;17.10;;;7.78;;
39540;SDS011;25219;52.244;21.006;2024-02-14T06:05:56;21.55;;;8.55;;
39540;SDS011;25219;52.244;21.006;2024-02-14T06:08:21;26.33;;;9.27;;
39540;SDS011;25219;52.244;21.006;2024-02-14T06:10:48;17.95;;;8.68;;
39540;SDS011;25219;52.244;21.006;2024-02-14T06:13:13;20.25;;;8.10;;
39540;SDS011;25219;52.244;21.006;2024-02-14T06:15:39;17.97;;;8.30;;
39540;SDS011;25219;52.244;21.006;2024-02-14T06:18:04;19.30;;;8.80;;
39540;SDS011;25219;52.244;21.006;2024-02-14T06:20:29;18.73;;;7.90;;
39540;SDS011;25219;52.244;21.006;2024-02-14T06:22:54;21.83;;;8.38;;
39540;SDS011;25219;52.244;21.006;2024-02-14T06:25:20;22.77;;;8.82;;
39540;SDS011;25219;52.244;21.006;2024-02-14T06:27:45;21.55;;;8.60;;
39540;SDS011;25219;52.244;21.006;2024-02-14T06:30:10;24.17;;;8.80;;
39540;SDS011;25219;52.244;21.006;2024-02-14T06:32:36;20.15;;;8.90;;
39540;SDS011;25219;52.244;21.006;2024-02-14T06:35:01;19.87;;;8.20;;
39540;SDS011;25219;52.244;21.006;2024-02-14T06:37:26;20.15;;;8.80;;
39540;SDS011;25219;52.244;21.006;2024-02-14T06:39:51;18.43;;;8.50;;
39540;SDS011;25219;52.244;21.006;2024-02-14T06:42:17;17.33;;;7.22;;
39540;SDS011;25219;52.244;21.006;2024-02-14T06:44:42;23.25;;;8.32;;
39540;SDS011;25219;52.244;21.006;2024-02-14T06:47:07;19.40;;;8.30;;
39540;SDS011;25219;52.244;21.006;2024-02-14T06:49:33;21.40;;;9.02;;
39540;SDS011;25219;52.244;21.006;2024-02-14T06:51:58;23.37;;;8.37;;
39540;SDS011;25219;52.244;21.006;2024-02-14T06:54:23;18.67;;;8.50;;
39540;SDS011;25219;52.244;21.006;2024-02-14T06:56:48;24.63;;;8.70;;
39540;SDS011;25219;52.244;21.006;2024-02-14T06:59:13;19.47;;;8.33;;
39540;SDS011;25219;52.244;21.006;2024-02-14T07:01:38;24.25;;;9.35;;
39540;SDS011;25219;52.244;21.006;2024-02-14T07:04:04;20.83;;;8.27;;
39540;SDS011;25219;52.244;21.006;2024-02-14T07:06:29;24.08;;;8.85;;
39540;SDS011;25219;52.244;21.006;2024-02-14T07:08:54;24.53;;;9.23;;
39540;SDS011;25219;52.244;21.006;2024-02-14T07:11:20;18.85;;;9.27;;
39540;SDS011;25219;52.244;21.006;2024-02-14T07:13:45;20.10;;;9.73;;
39540;SDS011;25219;52.244;21.006;2024-02-14T07:16:10;19.98;;;9.32;;
39540;SDS011;25219;52.244;21.006;2024-02-14T07:18:35;20.58;;;8.98;;
39540;SDS011;25219;52.244;21.006;2024-02-14T07:21:01;20.38;;;8.80;;
39540;SDS011;25219;52.244;21.006;2024-02-14T07:23:30;21.77;;;8.95;;
39540;SDS011;25219;52.244;21.006;2024-02-14T07:25:55;21.52;;;8.80;;
39540;SDS011;25219;52.244;21.006;2024-02-14T07:28:21;27.90;;;9.30;;
39540;SDS011;25219;52.244;21.006;2024-02-14T07:30:46;19.80;;;8.90;;
39540;SDS011;25219;52.244;21.006;2024-02-14T07:33:11;23.65;;;8.48;;
39540;SDS011;25219;52.244;21.006;2024-02-14T07:35:37;17.45;;;8.77;;
39540;SDS011;25219;52.244;21.006;2024-02-14T07:38:03;23.07;;;9.33;;
39540;SDS011;25219;52.244;21.006;2024-02-14T07:40:28;30.37;;;8.70;;
39540;SDS011;25219;52.244;21.006;2024-02-14T07:42:56;18.17;;;8.68;;
39540;SDS011;25219;52.244;21.006;2024-02-14T07:45:21;21.60;;;8.13;;
39540;SDS011;25219;52.244;21.006;2024-02-14T07:47:46;18.73;;;8.60;;
39540;SDS011;25219;52.244;21.006;2024-02-14T07:50:11;17.03;;;8.83;;
39540;SDS011;25219;52.244;21.006;2024-02-14T07:52:36;19.92;;;8.82;;
39540;SDS011;25219;52.244;21.006;2024-02-14T07:55:01;20.37;;;8.30;;
39540;SDS011;25219;52.244;21.006;2024-02-14T07:57:27;19.23;;;8.60;;
39540;SDS011;25219;52.244;21.006;2024-02-14T07:59:52;18.95;;;7.80;;
39540;SDS011;25219;52.244;21.006;2024-02-14T08:02:18;20.45;;;7.97;;
39540;SDS011;25219;52.244;21.006;2024-02-14T08:04:44;21.88;;;8.50;;
39540;SDS011;25219;52.244;21.006;2024-02-14T08:07:09;16.80;;;7.72;;
39540;SDS011;25219;52.244;21.006;2024-02-14T08:09:34;21.30;;;8.45;;
39540;SDS011;25219;52.244;21.006;2024-02-14T08:11:59;20.63;;;9.75;;
39540;SDS011;25219;52.244;21.006;2024-02-14T08:14:25;19.53;;;8.27;;
39540;SDS011;25219;52.244;21.006;2024-02-14T08:16:50;18.93;;;8.07;;
39540;SDS011;25219;52.244;21.006;2024-02-14T08:19:16;15.68;;;8.00;;
39540;SDS011;25219;52.244;21.006;2024-02-14T08:21:43;17.60;;;8.07;;
39540;SDS011;25219;52.244;21.006;2024-02-14T08:24:08;20.60;;;8.27;;
39540;SDS011;25219;52.244;21.006;2024-02-14T08:26:33;18.55;;;8.18;;
39540;SDS011;25219;52.244;21.006;2024-02-14T08:28:59;19.45;;;7.75;;
39540;SDS011;25219;52.244;21.006;2024-02-14T08:31:25;25.77;;;8.18;;
39540;SDS011;25219;52.244;21.006;2024-02-14T08:33:50;20.90;;;7.97;;
39540;SDS011;25219;52.244;21.006;2024-02-14T08:36:15;23.37;;;7.93;;
39540;SDS011;25219;52.244;21.006;2024-02-14T08:38:41;20.88;;;8.18;;
39540;SDS011;25219;52.244;21.006;2024-02-14T08:41:07;21.03;;;7.30;;
39540;SDS011;25219;52.244;21.006;2024-02-14T08:43:32;20.75;;;7.57;;
39540;SDS011;25219;52.244;21.006;2024-02-14T08:45:58;24.05;;;8.20;;
39540;SDS011;25219;52.244;21.006;2024-02-14T08:48:23;14.20;;;6.83;;
39540;SDS011;25219;52.244;21.006;2024-02-14T08:50:49;13.90;;;6.18;;
39540;SDS011;25219;52.244;21.006;2024-02-14T08:53:15;24.30;;;7.37;;
39540;SDS011;25219;52.244;21.006;2024-02-14T08:55:41;18.88;;;7.63;;
39540;SDS011;25219;52.244;21.006;2024-02-14T08:58:06;18.63;;;7.43;;
39540;SDS011;25219;52.244;21.006;2024-02-14T09:00:31;20.20;;;7.50;;
39540;SDS011;25219;52.244;21.006;2024-02-14T09:03:00;14.20;;;6.70;;
39540;SDS011;25219;52.244;21.006;2024-02-14T09:05:25;15.50;;;6.70;;
39540;SDS011;25219;52.244;21.006;2024-02-14T09:07:50;17.00;;;6.43;;
39540;SDS011;25219;52.244;21.006;2024-02-14T09:10:15;15.02;;;5.75;;
39540;SDS011;25219;52.244;21.006;2024-02-14T09:12:40;12.83;;;5.67;;
39540;SDS011;25219;52.244;21.006;2024-02-14T09:15:09;11.00;;;5.30;;
39540;SDS011;25219;52.244;21.006;2024-02-14T09:17:34;15.85;;;4.85;;
39540;SDS011;25219;52.244;21.006;2024-02-14T09:19:59;9.20;;;4.63;;
39540;SDS011;25219;52.244;21.006;2024-02-14T09:22:24;13.70;;;4.57;;
39540;SDS011;25219;52.244;21.006;2024-02-14T09:24:50;12.73;;;4.70;;
39540;SDS011;25219;52.244;21.006;2024-02-14T09:27:15;13.65;;;5.70;;
39540;SDS011;25219;52.244;21.006;2024-02-14T09:29:40;10.43;;;4.60;;
39540;SDS011;25219;52.244;21.006;2024-02-14T09:32:05;13.48;;;4.38;;
39540;SDS011;25219;52.244;21.006;2024-02-14T09:34:31;10.17;;;4.87;;
39540;SDS011;25219;52.244;21.006;2024-02-14T09:36:56;12.73;;;4.90;;
39540;SDS011;25219;52.244;21.006;2024-02-14T09:39:23;9.30;;;4.32;;
39540;SDS011;25219;52.244;21.006;2024-02-14T09:41:51;10.53;;;4.67;;
39540;SDS011;25219;52.244;21.006;2024-02-14T09:44:16;11.18;;;4.63;;
39540;SDS011;25219;52.244;21.006;2024-02-14T09:46:41;12.40;;;4.70;;
39540;SDS011;25219;52.244;21.006;2024-02-14T09:49:07;9.10;;;4.18;;
39540;SDS011;25219;52.244;21.006;2024-02-14T09:51:32;9.18;;;4.28;;
39540;SDS011;25219;52.244;21.006;2024-02-14T09:53:59;11.97;;;4.60;;
39540;SDS011;25219;52.244;21.006;2024-02-14T09:56:24;8.65;;;4.45;;
39540;SDS011;25219;52.244;21.006;2024-02-14T09:58:50;9.52;;;4.68;;
39540;SDS011;25219;52.244;21.006;2024-02-14T10:01:21;10.88;;;4.38;;
39540;SDS011;25219;52.244;21.006;2024-02-14T10:03:49;8.90;;;3.88;;
39540;SDS011;25219;52.244;21.006;2024-02-14T10:06:14;7.03;;;3.63;;
39540;SDS011;25219;52.244;21.006;2024-02-14T10:08:40;16.67;;;4.30;;
39540;SDS011;25219;52.244;21.006;2024-02-14T10:11:05;15.77;;;5.70;;
39540;SDS011;25219;52.244;21.006;2024-02-14T10:13:31;9.40;;;4.10;;
39540;SDS011;25219;52.244;21.006;2024-02-14T10:15:56;8.63;;;3.38;;
39540;SDS011;25219;52.244;21.006;2024-02-14T10:18:22;13.30;;;3.65;;
39540;SDS011;25219;52.244;21.006;2024-02-14T10:20:54;11.10;;;3.70;;
39540;SDS011;25219;52.244;21.006;2024-02-14T10:23:19;11.48;;;3.40;;
39540;SDS011;25219;52.244;21.006;2024-02-14T10:25:45;7.60;;;3.80;;
39540;SDS011;25219;52.244;21.006;2024-02-14T10:28:10;13.27;;;3.40;;
39540;SDS011;25219;52.244;21.006;2024-02-14T10:30:35;7.73;;;3.33;;
39540;SDS011;25219;52.244;21.006;2024-02-14T10:33:03;8.40;;;3.00;;
39540;SDS011;25219;52.244;21.006;2024-02-14T10:35:28;8.27;;;3.25;;
39540;SDS011;25219;52.244;21.006;2024-02-14T10:37:55;7.32;;;3.10;;
39540;SDS011;25219;52.244;21.006;2024-02-14T10:40:25;7.03;;;2.67;;
39540;SDS011;25219;52.244;21.006;2024-02-14T10:42:52;10.13;;;2.72;;
39540;SDS011;25219;52.244;21.006;2024-02-14T10:45:19;3.80;;;1.98;;
39540;SDS011;25219;52.244;21.006;2024-02-14T10:47:44;4.50;;;2.17;;
39540;SDS011;25219;52.244;21.006;2024-02-14T10:50:10;9.90;;;2.55;;
39540;SDS011;25219;52.244;21.006;2024-02-14T10:52:39;6.05;;;2.13;;
39540;SDS011;25219;52.244;21.006;2024-02-14T10:55:05;6.15;;;2.50;;
39540;SDS011;25219;52.244;21.006;2024-02-14T10:57:31;6.45;;;2.38;;
39540;SDS011;25219;52.244;21.006;2024-02-14T10:59:57;34.45;;;14.90;;
39540;SDS011;25219;52.244;21.006;2024-02-14T11:02:23;8.27;;;3.67;;
39540;SDS011;25219;52.244;21.006;2024-02-14T11:04:49;7.57;;;2.38;;
39540;SDS011;25219;52.244;21.006;2024-02-14T11:07:18;7.18;;;2.17;;
39540;SDS011;25219;52.244;21.006;2024-02-14T11:09:43;5.47;;;2.00;;
39540;SDS011;25219;52.244;21.006;2024-02-14T11:12:08;4.53;;;2.03;;
39540;SDS011;25219;52.244;21.006;2024-02-14T11:14:34;7.68;;;2.05;;
39540;SDS011;25219;52.244;21.006;2024-02-14T11:17:00;3.75;;;2.00;;
39540;SDS011;25219;52.244;21.006;2024-02-14T11:19:32;5.35;;;1.92;;
39540;SDS011;25219;52.244;21.006;2024-02-14T11:22:13;6.43;;;2.10;;
39540;SDS011;25219;52.244;21.006;2024-02-14T11:24:41;4.43;;;1.83;;
39540;SDS011;25219;52.244;21.006;2024-02-14T11:27:10;3.90;;;1.88;;
39540;SDS011;25219;52.244;21.006;2024-02-14T11:29:39;3.42;;;1.98;;
39540;SDS011;25219;52.244;21.006;2024-02-14T11:32:05;5.75;;;1.80;;
39540;SDS011;25219;52.244;21.006;2024-02-14T11:34:33;3.97;;;1.70;;
39540;SDS011;25219;52.244;21.006;2024-02-14T11:37:01;5.50;;;1.90;;
39540;SDS011;25219;52.244;21.006;2024-02-14T11:39:26;5.13;;;1.63;;
39540;SDS011;25219;52.244;21.006;2024-02-14T11:41:52;7.43;;;1.90;;
39540;SDS011;25219;52.244;21.006;2024-02-14T11:44:20;5.25;;;1.80;;
39540;SDS011;25219;52.244;21.006;2024-02-14T11:49:13;8.13;;;2.25;;
39540;SDS011;25219;52.244;21.006;2024-02-14T11:51:38;9.77;;;1.65;;
39540;SDS011;25219;52.244;21.006;2024-02-14T11:54:06;5.47;;;1.90;;
39540;SDS011;25219;52.244;21.006;2024-02-14T11:56:32;4.30;;;1.83;;
39540;SDS011;25219;52.244;21.006;2024-02-14T11:59:01;5.75;;;2.00;;
39540;SDS011;25219;52.244;21.006;2024-02-14T12:01:28;4.18;;;1.85;;
39540;SDS011;25219;52.244;21.006;2024-02-14T12:03:53;3.80;;;1.70;;
39540;SDS011;25219;52.244;21.006;2024-02-14T12:06:18;7.85;;;1.83;;
39540;SDS011;25219;52.244;21.006;2024-02-14T12:08:44;4.13;;;2.22;;
39540;SDS011;25219;52.244;21.006;2024-02-14T12:11:09;5.47;;;1.88;;
39540;SDS011;25219;52.244;21.006;2024-02-14T12:13:34;6.57;;;2.07;;
39540;SDS011;25219;52.244;21.006;2024-02-14T12:16:03;6.22;;;1.95;;
39540;SDS011;25219;52.244;21.006;2024-02-14T12:18:28;10.23;;;1.80;;
39540;SDS011;25219;52.244;21.006;2024-02-14T12:20:58;2.63;;;1.40;;
39540;SDS011;25219;52.244;21.006;2024-02-14T12:23:27;7.22;;;1.58;;
39540;SDS011;25219;52.244;21.006;2024-02-14T12:25:53;3.53;;;1.67;;
39540;SDS011;25219;52.244;21.006;2024-02-14T12:28:18;5.80;;;2.10;;
39540;SDS011;25219;52.244;21.006;2024-02-14T12:30:47;4.50;;;1.92;;
39540;SDS011;25219;52.244;21.006;2024-02-14T12:33:15;3.53;;;1.50;;
39540;SDS011;25219;52.244;21.006;2024-02-14T12:35:44;6.15;;;1.65;;
39540;SDS011;25219;52.244;21.006;2024-02-14T12:38:09;4.90;;;1.63;;
39540;SDS011;25219;52.244;21.006;2024-02-14T12:40:35;3.03;;;1.60;;
39540;SDS011;25219;52.244;21.006;2024-02-14T12:43:00;4.18;;;1.40;;
39540;SDS011;25219;52.244;21.006;2024-02-14T12:45:25;4.67;;;1.70;;
39540;SDS011;25219;52.244;21.006;2024-02-14T12:47:50;4.47;;;1.50;;
39540;SDS011;25219;52.244;21.006;2024-02-14T12:50:15;4.57;;;1.60;;
39540;SDS011;25219;52.244;21.006;2024-02-14T12:52:41;8.10;;;1.90;;
39540;SDS011;25219;52.244;21.006;2024-02-14T12:55:06;4.20;;;1.45;;
39540;SDS011;25219;52.244;21.006;2024-02-14T12:57:31;3.40;;;1.25;;
39540;SDS011;25219;52.244;21.006;2024-02-14T12:59:56;5.13;;;2.07;;
39540;SDS011;25219;52.244;21.006;2024-02-14T13:02:21;6.60;;;1.83;;
39540;SDS011;25219;52.244;21.006;2024-02-14T13:04:47;4.20;;;1.70;;
39540;SDS011;25219;52.244;21.006;2024-02-14T13:07:12;3.05;;;1.60;;
39540;SDS011;25219;52.244;21.006;2024-02-14T13:09:37;5.72;;;1.63;;
39540;SDS011;25219;52.244;21.006;2024-02-14T13:12:03;3.67;;;1.65;;
39540;SDS011;25219;52.244;21.006;2024-02-14T13:14:30;2.58;;;1.33;;
39540;SDS011;25219;52.244;21.006;2024-02-14T13:16:57;3.20;;;1.60;;
39540;SDS011;25219;52.244;21.006;2024-02-14T13:19:23;4.43;;;1.50;;
39540;SDS011;25219;52.244;21.006;2024-02-14T13:21:51;3.95;;;1.90;;
39540;SDS011;25219;52.244;21.006;2024-02-14T13:24:16;3.55;;;1.77;;
39540;SDS011;25219;52.244;21.006;2024-02-14T13:26:41;3.03;;;2.08;;
39540;SDS011;25219;52.244;21.006;2024-02-14T13:29:07;8.40;;;1.90;;
39540;SDS011;25219;52.244;21.006;2024-02-14T13:31:32;8.40;;;2.33;;
39540;SDS011;25219;52.244;21.006;2024-02-14T13:33:57;7.87;;;2.57;;
39540;SDS011;25219;52.244;21.006;2024-02-14T13:36:22;4.88;;;1.70;;
39540;SDS011;25219;52.244;21.006;2024-02-14T13:38:54;2.40;;;1.52;;
39540;SDS011;25219;52.244;21.006;2024-02-14T13:41:19;3.45;;;1.63;;
39540;SDS011;25219;52.244;21.006;2024-02-14T13:43:44;1.85;;;1.40;;
39540;SDS011;25219;52.244;21.006;2024-02-14T13:46:09;4.43;;;1.40;;
39540;SDS011;25219;52.244;21.006;2024-02-14T13:48:35;4.97;;;1.42;;
39540;SDS011;25219;52.244;21.006;2024-02-14T13:51:00;4.28;;;2.63;;
39540;SDS011;25219;52.244;21.006;2024-02-14T13:53:27;5.55;;;1.73;;
39540;SDS011;25219;52.244;21.006;2024-02-14T13:55:52;4.32;;;1.65;;
39540;SDS011;25219;52.244;21.006;2024-02-14T13:58:18;3.60;;;1.45;;
39540;SDS011;25219;52.244;21.006;2024-02-14T14:00:43;5.78;;;1.95;;
39540;SDS011;25219;52.244;21.006;2024-02-14T14:03:09;5.87;;;1.83;;
39540;SDS011;25219;52.244;21.006;2024-02-14T14:05:34;4.63;;;1.70;;
39540;SDS011;25219;52.244;21.006;2024-02-14T14:08:02;4.30;;;1.58;;
39540;SDS011;25219;52.244;21.006;2024-02-14T14:10:28;3.03;;;2.03;;
39540;SDS011;25219;52.244;21.006;2024-02-14T14:12:54;5.93;;;1.88;;
39540;SDS011;25219;52.244;21.006;2024-02-14T14:15:19;10.70;;;2.45;;
39540;SDS011;25219;52.244;21.006;2024-02-14T14:17:44;4.35;;;1.92;;
39540;SDS011;25219;52.244;21.006;2024-02-14T14:20:10;6.00;;;1.83;;